createdAt,value
2022-12-03T00:00:54.309Z,19.75
2022-12-03T00:03:21.688Z,20.13
2022-12-03T00:05:49.450Z,22.95
2022-12-03T00:08:16.922Z,17.20
2022-12-03T00:10:44.229Z,22.13
2022-12-03T00:13:11.526Z,19.95
2022-12-03T00:15:38.794Z,18.42
2022-12-03T00:18:06.148Z,19.30
2022-12-03T00:20:33.448Z,18.88
2022-12-03T00:23:00.733Z,18.08
2022-12-03T00:25:28.073Z,19.85
2022-12-03T00:27:55.407Z,17.85
2022-12-03T00:30:22.650Z,21.55
2022-12-03T00:32:49.920Z,20.67
2022-12-03T00:35:17.269Z,20.63
2022-12-03T00:37:44.539Z,18.63
2022-12-03T00:40:12.340Z,22.80
2022-12-03T00:42:39.585Z,19.42
2022-12-03T00:45:07.110Z,36.35
2022-12-03T00:47:34.369Z,21.17
2022-12-03T00:50:01.661Z,21.45
2022-12-03T00:52:28.944Z,22.05
2022-12-03T00:54:56.296Z,20.02
2022-12-03T00:57:23.740Z,19.50
2022-12-03T00:59:51.004Z,22.50
2022-12-03T01:02:18.361Z,25.05
2022-12-03T01:04:45.813Z,21.10
2022-12-03T01:07:13.137Z,18.23
2022-12-03T01:09:40.378Z,24.48
2022-12-03T01:12:07.659Z,20.60
2022-12-03T01:14:34.913Z,21.45
2022-12-03T01:17:02.133Z,17.80
2022-12-03T01:19:29.576Z,21.92
2022-12-03T01:21:57.039Z,22.10
2022-12-03T01:24:24.315Z,19.30
2022-12-03T01:26:51.738Z,21.00
2022-12-03T01:29:19.010Z,19.58
2022-12-03T01:32:04.729Z,21.90
2022-12-03T01:34:32.040Z,19.50
2022-12-03T01:36:59.606Z,21.70
2022-12-03T01:39:26.879Z,24.95
2022-12-03T01:41:54.791Z,23.73
2022-12-03T01:44:23.915Z,19.02
2022-12-03T01:46:52.132Z,21.75
2022-12-03T01:49:42.671Z,18.70
2022-12-03T01:52:18.201Z,17.92
2022-12-03T01:54:47.709Z,19.90
2022-12-03T01:57:20.816Z,20.13
2022-12-03T01:59:48.619Z,23.33
2022-12-03T02:02:18.749Z,21.25
2022-12-03T02:04:46.093Z,21.08
2022-12-03T02:07:19.372Z,21.10
2022-12-03T02:09:46.612Z,20.75
2022-12-03T02:12:15.503Z,21.10
2022-12-03T02:14:42.870Z,21.48
2022-12-03T02:17:10.408Z,22.60
2022-12-03T02:19:37.659Z,21.80
2022-12-03T02:22:11.094Z,22.90
2022-12-03T02:24:43.308Z,24.95
2022-12-03T02:27:10.572Z,25.58
2022-12-03T02:29:37.874Z,21.60
2022-12-03T02:32:05.256Z,23.27
2022-12-03T02:34:36.686Z,24.25
2022-12-03T02:37:05.120Z,21.38
2022-12-03T02:39:32.996Z,26.83
2022-12-03T02:42:18.733Z,23.50
2022-12-03T02:44:46.077Z,18.70
2022-12-03T02:47:13.564Z,19.90
2022-12-03T02:49:41.314Z,24.80
2022-12-03T02:52:08.609Z,28.60
2022-12-03T02:54:36.195Z,20.75
2022-12-03T02:57:03.583Z,22.63
2022-12-03T02:59:30.856Z,25.60
2022-12-03T03:01:58.315Z,26.63
2022-12-03T03:04:26.006Z,25.65
2022-12-03T03:06:53.489Z,21.80
2022-12-03T03:09:21.508Z,22.42
2022-12-03T03:11:48.812Z,21.88
2022-12-03T03:14:16.142Z,26.77
2022-12-03T03:16:43.590Z,25.60
2022-12-03T03:19:10.983Z,27.33
2022-12-03T03:21:38.505Z,23.55
2022-12-03T03:24:06.044Z,25.45
2022-12-03T03:26:33.419Z,22.77
2022-12-03T03:29:03.141Z,21.33
2022-12-03T03:31:30.523Z,21.95
2022-12-03T03:33:57.929Z,27.50
2022-12-03T03:36:26.037Z,27.63
2022-12-03T03:38:53.417Z,24.58
2022-12-03T03:41:21.679Z,21.65
2022-12-03T03:43:49.796Z,28.75
2022-12-03T03:46:18.085Z,23.83
2022-12-03T03:48:45.510Z,23.15
2022-12-03T03:51:13.193Z,26.77
2022-12-03T03:53:42.021Z,25.42
2022-12-03T03:56:09.927Z,20.50
2022-12-03T03:58:37.427Z,28.00
2022-12-03T04:01:04.772Z,20.95
2022-12-03T04:03:32.109Z,20.15
2022-12-03T04:05:59.355Z,21.80
2022-12-03T04:08:26.745Z,19.63
2022-12-03T04:11:12.980Z,20.35
2022-12-03T04:13:40.246Z,21.45
2022-12-03T04:16:07.633Z,20.38
2022-12-03T04:18:44.063Z,19.85
2022-12-03T04:21:30.132Z,25.25
2022-12-03T04:23:57.443Z,22.30
2022-12-03T04:26:43.681Z,22.05
2022-12-03T04:29:11.151Z,22.33
2022-12-03T04:31:57.312Z,20.25
2022-12-03T04:34:43.655Z,22.77
2022-12-03T04:37:10.977Z,19.38
2022-12-03T04:39:38.313Z,17.60
2022-12-03T04:42:06.413Z,19.70
2022-12-03T04:44:35.760Z,20.05
2022-12-03T04:47:05.870Z,17.23
2022-12-03T04:49:33.982Z,21.40
2022-12-03T04:52:01.282Z,22.17
2022-12-03T04:54:29.089Z,21.50
2022-12-03T04:56:56.475Z,24.05
2022-12-03T04:59:23.799Z,24.90
2022-12-03T05:01:51.206Z,23.42
2022-12-03T05:04:18.613Z,22.63
2022-12-03T05:06:45.897Z,25.35
2022-12-03T05:09:13.268Z,21.13
2022-12-03T05:11:41.049Z,23.20
2022-12-03T05:14:08.388Z,26.02
2022-12-03T05:16:35.724Z,26.40
2022-12-03T05:19:06.609Z,38.53
2022-12-03T05:21:33.904Z,34.10
2022-12-03T05:24:01.242Z,44.08
2022-12-03T05:26:28.554Z,43.80
2022-12-03T05:28:56.138Z,42.08
2022-12-03T05:31:23.474Z,40.90
2022-12-03T05:33:50.802Z,55.08
2022-12-03T05:36:18.049Z,47.08
2022-12-03T05:38:45.350Z,50.55
2022-12-03T05:41:31.327Z,57.33
2022-12-03T05:43:58.650Z,46.13
2022-12-03T05:46:25.946Z,46.63
2022-12-03T05:48:53.218Z,40.08
2022-12-03T05:51:20.449Z,44.47
2022-12-03T05:53:48.199Z,43.40
2022-12-03T05:56:15.409Z,48.83
2022-12-03T05:58:42.651Z,45.33
2022-12-03T06:01:09.894Z,45.63
2022-12-03T06:03:37.253Z,53.15
2022-12-03T06:06:04.740Z,51.47
2022-12-03T06:08:31.964Z,50.38
2022-12-03T06:11:01.929Z,52.60
2022-12-03T06:13:29.185Z,54.85
2022-12-03T06:15:56.511Z,46.63
2022-12-03T06:18:23.858Z,47.00
2022-12-03T06:20:51.129Z,45.20
2022-12-03T06:23:18.379Z,44.53
2022-12-03T06:25:45.623Z,46.72
2022-12-03T06:28:12.881Z,46.10
2022-12-03T06:30:40.148Z,44.08
2022-12-03T06:33:10.472Z,49.92
2022-12-03T06:35:37.732Z,47.58
2022-12-03T06:38:05.224Z,40.95
2022-12-03T06:40:32.479Z,42.15
2022-12-03T06:42:59.781Z,50.78
2022-12-03T06:45:27.068Z,49.03
2022-12-03T06:47:54.298Z,39.90
2022-12-03T06:50:21.564Z,50.25
2022-12-03T06:52:48.777Z,43.08
2022-12-03T06:55:16.110Z,42.78
2022-12-03T06:57:43.390Z,36.95
2022-12-03T07:00:10.983Z,46.83
2022-12-03T07:02:38.330Z,45.38
2022-12-03T07:05:06.145Z,45.92
2022-12-03T07:07:33.587Z,41.45
2022-12-03T07:10:00.909Z,46.65
2022-12-03T07:12:28.258Z,44.78
2022-12-03T07:14:55.956Z,41.28
2022-12-03T07:17:23.591Z,45.72
2022-12-03T07:19:50.872Z,39.08
2022-12-03T07:22:18.162Z,45.72
2022-12-03T07:24:45.417Z,40.33
2022-12-03T07:27:12.660Z,42.22
2022-12-03T07:29:40.329Z,39.40
2022-12-03T07:32:07.575Z,44.17
2022-12-03T07:34:34.827Z,39.70
2022-12-03T07:37:02.059Z,33.13
2022-12-03T07:39:29.371Z,41.00
2022-12-03T07:41:56.636Z,36.10
2022-12-03T07:44:23.879Z,38.35
2022-12-03T07:46:51.156Z,45.90
2022-12-03T07:49:18.491Z,37.42
2022-12-03T07:51:53.766Z,42.65
2022-12-03T07:54:21.577Z,41.80
2022-12-03T07:56:48.831Z,40.90
2022-12-03T07:59:16.465Z,39.33
2022-12-03T08:01:43.940Z,41.45
2022-12-03T08:04:15.003Z,38.30
2022-12-03T08:06:42.319Z,42.05
2022-12-03T08:09:14.593Z,35.22
2022-12-03T08:11:45.241Z,37.75
2022-12-03T08:14:13.887Z,37.08
2022-12-03T08:16:41.943Z,35.30
2022-12-03T08:19:10.659Z,34.03
2022-12-03T08:21:38.382Z,36.03
2022-12-03T08:24:17.466Z,35.97
2022-12-03T08:26:45.517Z,35.85
2022-12-03T08:29:14.229Z,34.30
2022-12-03T08:31:41.861Z,34.67
2022-12-03T08:34:28.524Z,32.08
2022-12-03T08:37:00.041Z,32.80
2022-12-03T08:39:33.609Z,33.97
2022-12-03T08:42:28.061Z,36.65
2022-12-03T08:44:56.123Z,37.70
2022-12-03T08:47:24.538Z,34.03
2022-12-03T08:49:55.009Z,32.03
2022-12-03T08:52:23.701Z,36.17
2022-12-03T08:54:55.212Z,31.20
2022-12-03T08:57:23.831Z,37.65
2022-12-03T08:59:52.492Z,31.17
2022-12-03T09:02:23.277Z,30.50
2022-12-03T09:04:52.897Z,30.15
2022-12-03T09:07:20.433Z,32.88
2022-12-03T09:09:47.710Z,34.90
2022-12-03T09:12:14.955Z,30.20
2022-12-03T09:14:42.200Z,31.05
2022-12-03T09:17:09.585Z,29.23
2022-12-03T09:19:40.110Z,26.13
2022-12-03T09:22:12.096Z,31.23
2022-12-03T09:24:39.345Z,23.80
2022-12-03T09:27:06.577Z,29.98
2022-12-03T09:29:33.811Z,27.85
2022-12-03T09:32:01.173Z,34.00
2022-12-03T09:34:28.577Z,31.27
2022-12-03T09:36:55.836Z,31.75
2022-12-03T09:39:23.138Z,29.77
2022-12-03T09:41:50.583Z,33.45
2022-12-03T09:44:18.410Z,21.15
2022-12-03T09:46:46.479Z,27.27
2022-12-03T09:49:16.183Z,28.30
2022-12-03T09:51:44.560Z,28.40
2022-12-03T09:54:17.032Z,33.10
2022-12-03T09:56:44.316Z,29.45
2022-12-03T09:59:15.120Z,29.83
2022-12-03T10:01:42.684Z,31.65
2022-12-03T10:04:10.057Z,38.75
2022-12-03T10:06:42.377Z,32.33
2022-12-03T10:09:14.552Z,29.40
2022-12-03T10:11:41.805Z,29.15
2022-12-03T10:14:11.523Z,34.40
2022-12-03T10:16:40.440Z,31.07
2022-12-03T10:19:10.151Z,31.52
2022-12-03T10:21:37.983Z,29.02
2022-12-03T10:24:21.686Z,30.58
2022-12-03T10:26:50.101Z,33.25
2022-12-03T10:29:21.996Z,33.63
2022-12-03T10:31:59.392Z,31.42
2022-12-03T10:34:37.240Z,28.63
2022-12-03T10:37:18.195Z,32.95
2022-12-03T10:39:57.839Z,36.03
2022-12-03T10:42:29.196Z,33.92
2022-12-03T10:45:09.788Z,36.10
2022-12-03T10:47:37.269Z,32.15
2022-12-03T10:50:06.116Z,35.22
2022-12-03T10:52:33.609Z,33.10
2022-12-03T10:55:00.934Z,33.78
2022-12-03T10:57:28.285Z,33.83
2022-12-03T10:59:55.610Z,34.78
2022-12-03T11:02:24.049Z,36.25
2022-12-03T11:04:52.228Z,35.00
2022-12-03T11:07:21.035Z,33.50
2022-12-03T11:09:50.443Z,39.50
2022-12-03T11:12:28.242Z,36.92
2022-12-03T11:14:56.646Z,34.28
2022-12-03T11:17:42.967Z,32.92
2022-12-03T11:20:22.544Z,39.08
2022-12-03T11:22:51.102Z,40.15
2022-12-03T11:25:27.397Z,36.38
2022-12-03T11:28:14.893Z,38.08
2022-12-03T11:30:51.422Z,35.53
2022-12-03T11:33:24.702Z,34.28
2022-12-03T11:36:04.342Z,32.42
2022-12-03T11:38:34.707Z,35.25
2022-12-03T11:41:08.080Z,33.85
2022-12-03T11:43:53.936Z,39.95
2022-12-03T11:46:22.753Z,32.30
2022-12-03T11:48:51.380Z,34.08
2022-12-03T11:51:20.534Z,38.85
2022-12-03T11:53:48.023Z,35.78
2022-12-03T11:56:19.649Z,37.28
2022-12-03T11:58:47.763Z,37.00
2022-12-03T12:01:16.073Z,25.00
2022-12-03T12:03:48.248Z,37.30
2022-12-03T12:06:17.309Z,44.25
2022-12-03T12:08:50.785Z,33.13
2022-12-03T12:11:21.135Z,35.00
2022-12-03T12:13:56.614Z,38.00
2022-12-03T12:16:43.500Z,38.97
2022-12-03T12:19:29.555Z,46.10
2022-12-03T12:21:57.499Z,34.40
2022-12-03T12:24:31.725Z,38.17
2022-12-03T12:29:51.917Z,40.58
2022-12-03T12:32:23.113Z,45.58
2022-12-03T12:34:53.446Z,33.95
2022-12-03T12:37:47.327Z,40.25
2022-12-03T12:40:17.669Z,42.10
2022-12-03T12:42:50.335Z,40.40
2022-12-03T12:45:20.399Z,35.60
2022-12-03T12:47:49.906Z,42.03
2022-12-03T12:50:18.812Z,39.92
2022-12-03T12:53:08.988Z,40.15
2022-12-03T12:55:36.206Z,32.67
2022-12-03T12:58:06.642Z,43.53
2022-12-03T13:00:33.949Z,40.58
2022-12-03T13:03:03.025Z,43.20
2022-12-03T13:05:40.841Z,42.80
2022-12-03T13:08:31.469Z,39.60
2022-12-03T13:10:59.511Z,44.78
2022-12-03T13:13:29.596Z,45.65
2022-12-03T13:15:56.802Z,46.83
2022-12-03T13:18:28.763Z,44.17
2022-12-03T13:20:56.251Z,43.40
2022-12-03T13:23:23.496Z,45.95
2022-12-03T13:26:09.272Z,42.63
2022-12-03T13:28:41.529Z,47.05
2022-12-03T13:31:32.626Z,50.08
2022-12-03T13:34:00.589Z,41.15
2022-12-03T13:36:43.738Z,43.08
2022-12-03T13:39:20.329Z,38.63
2022-12-03T13:42:06.731Z,40.85
2022-12-03T13:44:34.350Z,42.97
2022-12-03T13:47:03.209Z,41.65
2022-12-03T13:49:30.835Z,44.65
2022-12-03T13:51:58.076Z,40.35
2022-12-03T13:54:28.474Z,37.25
2022-12-03T13:56:55.785Z,48.47
2022-12-03T13:59:26.195Z,42.22
2022-12-03T14:01:54.060Z,40.70
2022-12-03T14:04:21.338Z,36.22
2022-12-03T14:06:48.621Z,37.70
2022-12-03T14:09:15.934Z,38.28
2022-12-03T14:12:02.110Z,35.67
2022-12-03T14:14:29.345Z,32.85
2022-12-03T14:16:59.894Z,43.80
2022-12-03T14:19:27.616Z,42.40
2022-12-03T14:21:54.837Z,39.97
2022-12-03T14:24:22.083Z,43.17
2022-12-03T14:26:49.406Z,40.80
2022-12-03T14:29:16.656Z,41.80
2022-12-03T14:31:43.911Z,37.65
2022-12-03T14:34:11.278Z,42.30
2022-12-03T14:36:38.533Z,43.28
2022-12-03T14:39:05.775Z,42.60
2022-12-03T14:41:51.623Z,40.83
2022-12-03T14:44:21.870Z,38.83
2022-12-03T14:46:52.680Z,41.97
2022-12-03T14:49:22.725Z,44.97
2022-12-03T14:51:50.036Z,43.50
2022-12-03T14:54:17.331Z,44.38
2022-12-03T14:56:44.568Z,44.28
2022-12-03T14:59:11.819Z,44.75
2022-12-03T15:01:39.187Z,46.03
2022-12-03T15:04:06.606Z,44.85
2022-12-03T15:06:33.962Z,43.25
2022-12-03T15:09:01.288Z,49.60
2022-12-03T15:11:28.729Z,38.33
2022-12-03T15:13:56.006Z,42.72
2022-12-03T15:16:23.854Z,43.28
2022-12-03T15:18:51.195Z,42.97
2022-12-03T15:21:18.440Z,45.28
2022-12-03T15:23:45.681Z,44.85
2022-12-03T15:26:13.088Z,44.15
2022-12-03T15:28:43.019Z,43.30
2022-12-03T15:31:14.113Z,43.40
2022-12-03T15:33:41.403Z,43.72
2022-12-03T15:36:08.870Z,43.88
2022-12-03T15:38:36.182Z,41.40
2022-12-03T15:41:21.065Z,44.47
2022-12-03T15:43:48.886Z,49.17
2022-12-03T15:46:16.289Z,46.90
2022-12-03T15:48:43.615Z,45.75
2022-12-03T15:51:10.980Z,51.20
2022-12-03T15:53:38.509Z,47.78
2022-12-03T15:56:05.834Z,49.03
2022-12-03T15:58:33.205Z,46.67
2022-12-03T16:01:00.446Z,41.30
2022-12-03T16:03:27.765Z,48.00
2022-12-03T16:05:55.121Z,48.78
2022-12-03T16:08:22.474Z,47.72
2022-12-03T16:10:49.831Z,50.20
2022-12-03T16:13:17.151Z,44.85
2022-12-03T16:15:44.975Z,44.17
2022-12-03T16:18:12.240Z,49.53
2022-12-03T16:20:39.498Z,46.08
2022-12-03T16:23:07.312Z,49.72
2022-12-03T16:25:34.680Z,49.30
2022-12-03T16:28:01.972Z,45.33
2022-12-03T16:30:29.773Z,52.35
2022-12-03T16:32:57.094Z,46.60
2022-12-03T16:35:24.444Z,49.30
2022-12-03T16:37:51.714Z,101.82
2022-12-03T16:40:19.057Z,48.28
2022-12-03T16:42:46.363Z,47.90
2022-12-03T16:45:33.493Z,51.08
2022-12-03T16:48:01.482Z,49.67
2022-12-03T16:50:30.313Z,44.65
2022-12-03T16:52:58.042Z,46.13
2022-12-03T16:55:25.458Z,54.28
2022-12-03T16:57:52.693Z,47.15
2022-12-03T17:00:21.928Z,52.08
2022-12-03T17:02:49.418Z,45.13
2022-12-03T17:05:16.836Z,45.58
2022-12-03T17:07:44.236Z,48.80
2022-12-03T17:10:11.871Z,40.97
2022-12-03T17:13:07.724Z,50.10
2022-12-03T17:15:26.524Z,50.30
2022-12-03T17:17:53.849Z,53.42
2022-12-03T17:20:21.099Z,55.85
2022-12-03T17:22:48.410Z,42.17
2022-12-03T17:25:15.848Z,44.28
2022-12-03T17:27:45.555Z,47.13
2022-12-03T17:30:13.574Z,45.33
2022-12-03T17:32:40.969Z,49.38
2022-12-03T17:35:08.478Z,46.30
2022-12-03T17:37:36.028Z,45.97
2022-12-03T17:40:05.182Z,45.47
2022-12-03T17:42:32.422Z,51.20
2022-12-03T17:44:59.665Z,52.00
2022-12-03T17:47:26.920Z,50.17
2022-12-03T17:49:54.339Z,45.25
2022-12-03T17:52:21.763Z,49.50
2022-12-03T17:55:10.143Z,48.03
2022-12-03T17:57:36.345Z,47.78
2022-12-03T18:00:03.703Z,49.17
2022-12-03T18:02:30.964Z,54.78
2022-12-03T18:04:58.238Z,54.47
2022-12-03T18:07:25.616Z,59.30
2022-12-03T18:09:53.372Z,51.03
2022-12-03T18:12:20.902Z,52.70
2022-12-03T18:14:48.139Z,59.38
2022-12-03T18:17:15.402Z,52.13
2022-12-03T18:19:42.654Z,47.42
2022-12-03T18:22:10.109Z,54.20
2022-12-03T18:24:37.428Z,52.33
2022-12-03T18:27:04.751Z,56.95
2022-12-03T18:29:32.035Z,54.15
2022-12-03T18:31:59.351Z,52.90
2022-12-03T18:34:26.644Z,51.47
2022-12-03T18:36:53.959Z,52.58
2022-12-03T18:39:25.641Z,49.55
2022-12-03T18:41:53.428Z,50.55
2022-12-03T18:44:20.889Z,48.55
2022-12-03T18:46:55.505Z,52.08
2022-12-03T18:49:22.935Z,51.67
2022-12-03T18:51:54.561Z,51.58
2022-12-03T18:54:26.084Z,51.95
2022-12-03T18:56:53.309Z,51.85
2022-12-03T18:59:20.536Z,49.72
2022-12-03T19:01:47.850Z,51.30
2022-12-03T19:04:15.141Z,50.05
2022-12-03T19:06:42.405Z,49.45
2022-12-03T19:09:09.665Z,94.25
2022-12-03T19:11:36.969Z,50.47
2022-12-03T19:14:04.230Z,51.97
2022-12-03T19:16:31.779Z,50.00
2022-12-03T19:18:59.135Z,51.00
2022-12-03T19:21:30.680Z,53.58
2022-12-03T19:24:23.224Z,49.00
2022-12-03T19:26:48.377Z,50.40
2022-12-03T19:29:15.639Z,48.83
2022-12-03T19:31:42.985Z,46.95
2022-12-03T19:34:10.274Z,45.65
2022-12-03T19:36:37.597Z,46.70
2022-12-03T19:39:04.922Z,51.78
2022-12-03T19:41:32.180Z,52.60
2022-12-03T19:43:59.606Z,50.42
2022-12-03T19:46:31.355Z,49.55
2022-12-03T19:48:58.732Z,51.22
2022-12-03T19:51:34.752Z,52.70
2022-12-03T19:54:03.028Z,50.70
2022-12-03T19:56:30.576Z,48.58
2022-12-03T19:58:58.023Z,49.20
2022-12-03T20:01:27.039Z,51.22
2022-12-03T20:03:55.307Z,66.30
2022-12-03T20:06:24.649Z,52.00
2022-12-03T20:08:52.360Z,48.72
2022-12-03T20:11:23.799Z,49.28
2022-12-03T20:13:55.336Z,46.65
2022-12-03T20:16:23.351Z,49.10
2022-12-03T20:18:50.838Z,43.28
2022-12-03T20:21:18.996Z,47.10
2022-12-03T20:23:47.301Z,52.20
2022-12-03T20:26:15.843Z,47.78
2022-12-03T20:28:43.168Z,44.42
2022-12-03T20:31:13.518Z,46.50
2022-12-03T20:33:41.738Z,43.63
2022-12-03T20:36:09.509Z,42.80
2022-12-03T20:38:37.315Z,45.30
2022-12-03T20:41:05.896Z,43.30
2022-12-03T20:43:33.233Z,40.75
2022-12-03T20:46:10.512Z,42.22
2022-12-03T20:48:38.317Z,42.60
2022-12-03T20:51:06.632Z,50.42
2022-12-03T20:53:34.320Z,45.78
2022-12-03T20:56:04.964Z,39.72
2022-12-03T20:58:32.643Z,43.72
2022-12-03T21:01:13.893Z,44.70
2022-12-03T21:03:42.807Z,38.78
2022-12-03T21:06:10.584Z,81.97
2022-12-03T21:08:42.407Z,44.13
2022-12-03T21:11:14.919Z,44.95
2022-12-03T21:13:44.147Z,39.83
2022-12-03T21:16:13.603Z,39.92
2022-12-03T21:18:41.342Z,40.78
2022-12-03T21:21:08.818Z,39.05
2022-12-03T21:23:36.234Z,39.03
2022-12-03T21:26:09.885Z,40.25
2022-12-03T21:28:38.390Z,40.97
2022-12-03T21:31:06.845Z,40.17
2022-12-03T21:33:34.244Z,40.22
2022-12-03T21:36:01.521Z,36.45
2022-12-03T21:38:30.079Z,47.60
2022-12-03T21:40:57.962Z,39.35
2022-12-03T21:43:25.792Z,40.25
2022-12-03T21:45:53.542Z,40.55
2022-12-03T21:48:21.312Z,49.22
2022-12-03T21:50:58.407Z,42.72
2022-12-03T21:53:25.715Z,38.88
2022-12-03T21:55:52.964Z,40.05
2022-12-03T21:58:20.179Z,40.90
2022-12-03T22:00:47.412Z,44.05
2022-12-03T22:03:14.831Z,47.65
2022-12-03T22:05:42.246Z,46.70
2022-12-03T22:08:09.816Z,43.63
2022-12-03T22:10:37.385Z,40.70
2022-12-03T22:13:04.796Z,41.33
2022-12-03T22:15:32.207Z,45.78
2022-12-03T22:17:59.569Z,45.78
2022-12-03T22:20:27.479Z,45.83
2022-12-03T22:22:54.728Z,48.95
2022-12-03T22:25:22.001Z,43.67
2022-12-03T22:27:49.295Z,44.83
2022-12-03T22:30:16.593Z,41.92
2022-12-03T22:32:43.882Z,45.17
2022-12-03T22:35:11.127Z,44.83
2022-12-03T22:37:38.394Z,41.92
2022-12-03T22:40:05.898Z,46.58
2022-12-03T22:42:33.217Z,45.40
2022-12-03T22:45:00.482Z,39.38
2022-12-03T22:47:27.719Z,40.15
2022-12-03T22:49:55.195Z,43.08
2022-12-03T22:52:22.718Z,45.55
2022-12-03T22:54:50.010Z,42.45
2022-12-03T22:57:17.282Z,41.53
2022-12-03T22:59:44.561Z,45.92
2022-12-03T23:02:11.846Z,38.33
2022-12-03T23:04:39.123Z,37.70
2022-12-03T23:07:08.193Z,42.40
2022-12-03T23:09:35.510Z,41.53
2022-12-03T23:12:02.841Z,38.45
2022-12-03T23:14:30.123Z,36.35
2022-12-03T23:16:57.359Z,39.50
2022-12-03T23:19:24.727Z,37.88
2022-12-03T23:21:51.978Z,35.78
2022-12-03T23:24:19.248Z,36.25
2022-12-03T23:26:46.505Z,38.70
2022-12-03T23:29:13.766Z,38.72
2022-12-03T23:31:41.075Z,41.13
2022-12-03T23:34:08.389Z,35.30
2022-12-03T23:36:35.677Z,41.97
2022-12-03T23:39:03.219Z,36.28
2022-12-03T23:41:30.445Z,39.03
2022-12-03T23:43:57.974Z,37.17
2022-12-03T23:46:27.369Z,36.88
2022-12-03T23:48:54.771Z,36.53
2022-12-03T23:51:24.105Z,37.15
2022-12-03T23:53:54.766Z,39.95
2022-12-03T23:56:27.472Z,40.25
2022-12-03T23:58:54.756Z,38.22
